Aurora, CO (80018)

5:19 PM MDT on September 30, 2014 (GMT -0600)
Cross Creek | Change Station
CLOSE
Current Station
Personal Weather Station
Location: Aurora, CO
Elevation: 5612 ft
Nearby Weather Stations

Elev 5612 ft 39.72 °N, 104.71 °W | Updated 5 seconds ago

Mostly Cloudy
Mostly Cloudy
64.0 °F
Feels Like 64.0 °F
N
0.0
Wind Variable Wind from NNW
Gusts 2.0 mph

Today
High -- | Low -- °F
--% Chance of Precip.
Yesterday
High -- | Low -- °F
Precip. -- in
6:54 AM 6:42 PM
Waxing Crescent, 41% visible
Pressure 29.71 in
Visibility 10.0 miles
Clouds Few 7000 ft
Scattered Clouds 12000 ft
Mostly Cloudy 22000 ft
Dew Point 37 °F
Humidity 37%
Rainfall 0.01 in
Snow Depth 0 in , 0 in , 0 in
UV 0.0 out of 12
Pollen 3.50 out of 12
Ozone Good
PM2.5 Good
Flu Activity Not available.
METAR KBKF 302258Z 03002KT 10SM FEW070 SCT120 BKN220 17/00 A2984 RMK AO2A SLP060 T01741005

More Conditions Fewer Conditions

Pressure 29.71 in
Visibility 10.0 miles
Clouds Few 7000 ft
Scattered Clouds 12000 ft
Mostly Cloudy 22000 ft
Dew Point 37 °F
Humidity 37%
Rainfall 0.01 in
Snow Depth 0 in , 0 in , 0 in
UV 0.0 out of 12
Pollen 3.50 out of 12
Ozone Good
PM2.5 Good
Flu Activity Not available.
METAR KBKF 302258Z 03002KT 10SM FEW070 SCT120 BKN220 17/00 A2984 RMK AO2A SLP060 T01741005

More Conditions Fewer Conditions

10-Day Weather Forecast

Almanac

Astronomy

Sep. 30, 2014 Rise Set
Actual Time 6:54 AM MDT 6:42 PM MDT
Civil Twilight 6:27 AM MDT 7:09 PM MDT
Nautical Twilight 5:55 AM MDT 7:40 PM MDT
Astronomical Twilight 5:24 AM MDT 8:12 PM MDT
Moon 1:03 PM MDT 11:16 PM MDT
Length of Visible Light 12h 42m
Length of Day
11h 48m
Tomorrow will be 2m 35s shorter.
Waxing Crescent, 41% of the Moon is Illuminated
Today
Waxing Crescent
Oct 1
First Quarter
Oct 8
Full
Oct 15
Last Quarter
Oct 23
New

Today's Extremes

State Highs State Lows

Community

WunderPhotos

Upload Photos

1,757,768 photos uploaded!

Nearby

Air Quality

  Air Quality AQ Index Pollutant
Yesterday Good
OZONE
Yesterday Good
PM10
Current Good
OZONE
Current Good
PM2.5
Tuesday Good
OZONE
Tuesday Good
PM2.5
Wednesday Good
OZONE
Wednesday Good
PM2.5

Snow Depth

Station Depth Elevation
Middle Creek 0 in 11250 ft
Park Cone 0 in 9600 ft
Phantom Valley 0 in 9030 ft
Niwot 0 in 9910 ft
McClure Pass 1 in 9500 ft

Earthquake Activity

City Distance Mag. Time & Date
No recent earthquake activity has been reported nearby.
Minimum magnitude displayed is 2.5.

Coastal Water Temperatures

Place Temperature
No Stations Reporting

Nearby Weather Stations